Time;durP1;ratioP1;P1;durP2;ratioP2;P2;SDS_P1;SDS_P2;PMS_P1;PMS_P2;Temp;Humidity;BMP_temperature;BMP_pressure;BME280_temperature;BME280_humidity;BME280_pressure;Samples;Min_cycle;Max_cycle;Signal;HPM_P1;HPM_P2
2024/02/15 00:01:00;;;;;;;;;;;10.50;99.90;;;;;;5098972;28;19994;-79
2024/02/15 00:03:26;;;;;;;;;;;10.50;99.90;;;;;;5077759;28;19915;-79
2024/02/15 00:05:52;;;;;;;;;;;10.60;99.90;;;;;;5052965;28;19917;-79
2024/02/15 00:08:19;;;;;;;;;;;10.60;99.90;;;;;;5060128;28;20257;-79
2024/02/15 00:10:46;;;;;;;;;;;10.60;99.90;;;;;;5061147;28;20421;-79
2024/02/15 00:13:12;;;;;;;;;;;10.60;99.90;;;;;;5045561;28;19940;-79
2024/02/15 00:15:38;;;;;;;;;;;10.60;99.90;;;;;;5057889;28;20301;-79
2024/02/15 00:18:04;;;;;;;;;;;10.70;99.90;;;;;;5060408;28;19926;-79
2024/02/15 00:20:29;;;;;;;;;;;10.70;99.90;;;;;;5057160;28;19915;-79
2024/02/15 00:22:55;;;;;;;;;;;10.70;99.90;;;;;;5078441;28;20263;-79
2024/02/15 00:25:21;;;;;;;;;;;10.70;99.90;;;;;;5076520;28;20238;-79
2024/02/15 00:27:47;;;;;;;;;;;10.70;99.90;;;;;;5078069;28;19999;-79
2024/02/15 00:30:13;;;;;;;;;;;10.70;99.90;;;;;;5045336;28;19983;-79
2024/02/15 00:32:39;;;;;;;;;;;10.80;99.90;;;;;;5078669;28;19923;-79
2024/02/15 00:35:09;;;;;;;;;;;10.80;99.90;;;;;;5079012;28;19942;-80
2024/02/15 00:37:35;;;;;;;;;;;10.80;99.90;;;;;;5062233;28;19958;-80
2024/02/15 00:40:03;;;;;;;;;;;10.80;99.90;;;;;;5041683;28;20016;-79
2024/02/15 00:42:34;;;;;;;;;;;10.80;99.90;;;;;;5042143;28;20187;-79
2024/02/15 00:44:59;;;;;;;;;;;10.80;99.90;;;;;;5043000;28;20325;-79
2024/02/15 00:47:25;;;;;;;;;;;10.80;99.90;;;;;;5055356;28;19916;-79
2024/02/15 00:49:51;;;;;;;;;;;10.80;99.90;;;;;;5098490;28;20331;-79
2024/02/15 00:52:19;;;;;;;;;;;10.90;99.90;;;;;;5055323;28;20247;-79
2024/02/15 00:54:48;;;;;;;;;;;10.90;99.90;;;;;;5058403;28;19923;-80
2024/02/15 00:57:14;;;;;;;;;;;10.90;99.90;;;;;;5058363;28;19971;-79
2024/02/15 00:59:39;;;;;;;;;;;10.90;99.90;;;;;;5060799;28;19968;-79
2024/02/15 01:02:05;;;;;;;;;;;10.90;99.90;;;;;;5073338;28;19920;-79
2024/02/15 01:04:30;;;;;;;;;;;10.90;99.90;;;;;;5083938;28;20231;-79
2024/02/15 01:06:56;;;;;;;;;;;10.90;99.90;;;;;;5096720;28;20002;-79
2024/02/15 01:09:22;;;;;;;;;;;10.90;99.90;;;;;;5075909;28;19943;-80
2024/02/15 01:11:48;;;;;;;;;;;10.90;99.90;;;;;;5054585;28;19915;-80
2024/02/15 01:14:15;;;;;;;;;;;10.90;99.90;;;;;;5047967;28;19923;-79
2024/02/15 01:16:44;;;;;;;;;;;10.90;99.90;;;;;;5065283;28;19912;-79
2024/02/15 01:19:09;;;;;;;;;;;11.00;99.90;;;;;;5081974;28;19923;-79
2024/02/15 01:21:35;;;;;;;;;;;10.90;99.90;;;;;;5063537;28;19924;-79
2024/02/15 01:24:01;;;;;;;;;;;11.00;99.90;;;;;;5065755;28;19947;-79
2024/02/15 01:26:27;;;;;;;;;;;11.00;99.90;;;;;;5081362;28;19973;-79
2024/02/15 01:28:53;;;;;;;;;;;10.90;99.90;;;;;;5063976;28;19924;-79
2024/02/15 01:31:18;;;;;;;;;;;10.90;99.90;;;;;;5064258;28;19915;-80
2024/02/15 01:33:45;;;;;;;;;;;10.90;99.90;;;;;;5065547;28;19955;-79
2024/02/15 01:36:17;;;;;;;;;;;10.90;99.90;;;;;;5074047;28;19927;-81
2024/02/15 01:38:43;;;;;;;;;;;10.90;99.90;;;;;;5063959;28;19947;-79
2024/02/15 01:41:08;;;;;;;;;;;10.90;99.90;;;;;;5046661;28;19970;-79
2024/02/15 01:43:35;;;;;;;;;;;10.90;99.90;;;;;;5045697;28;19957;-79
2024/02/15 01:46:03;;;;;;;;;;;11.00;99.90;;;;;;5042336;28;19912;-79
2024/02/15 01:48:29;;;;;;;;;;;10.90;99.90;;;;;;5062608;28;19913;-79
2024/02/15 01:50:58;;;;;;;;;;;11.00;99.90;;;;;;5045355;28;20317;-79
2024/02/15 01:53:24;;;;;;;;;;;10.90;99.90;;;;;;5062103;28;19923;-79
2024/02/15 01:55:49;;;;;;;;;;;11.00;99.90;;;;;;5078960;28;20313;-79
2024/02/15 01:58:15;;;;;;;;;;;11.00;99.90;;;;;;5079204;28;20324;-79
2024/02/15 02:00:40;;;;;;;;;;;11.00;99.90;;;;;;5078544;28;20247;-79
2024/02/15 02:03:06;;;;;;;;;;;11.00;99.90;;;;;;5043784;28;19912;-79
2024/02/15 02:05:32;;;;;;;;;;;11.00;99.90;;;;;;5055789;28;19912;-79
2024/02/15 02:08:01;;;;;;;;;;;11.00;99.90;;;;;;5046561;28;19927;-79
2024/02/15 02:10:27;;;;;;;;;;;11.00;99.90;;;;;;5063153;28;19915;-79
2024/02/15 02:12:53;;;;;;;;;;;11.00;99.90;;;;;;5063340;28;19916;-79
2024/02/15 02:15:19;;;;;;;;;;;11.00;99.90;;;;;;5080851;28;20232;-80
2024/02/15 02:18:01;;;;;;;;;;;11.00;99.90;;;;;;5065480;28;20354;-79
2024/02/15 02:20:27;;;;;;;;;;;11.00;99.90;;;;;;5067053;28;20344;-79
2024/02/15 02:22:56;;;;;;;;;;;11.00;99.90;;;;;;5100211;28;19927;-79
2024/02/15 02:25:26;;;;;;;;;;;11.00;99.90;;;;;;5066507;28;19919;-78
2024/02/15 02:27:51;;;;;;;;;;;11.00;99.90;;;;;;5048909;28;19916;-79
2024/02/15 02:30:18;;;;;;;;;;;11.00;99.90;;;;;;5040404;28;19916;-80
2024/02/15 02:32:44;;;;;;;;;;;11.00;99.90;;;;;;5082490;28;19922;-79
2024/02/15 02:35:15;;;;;;;;;;;11.00;99.90;;;;;;5066845;28;19916;-79
2024/02/15 02:37:41;;;;;;;;;;;11.00;99.90;;;;;;5055824;28;19912;-79
2024/02/15 02:40:12;;;;;;;;;;;10.90;99.90;;;;;;5056504;28;19912;-79
2024/02/15 02:43:06;;;;;;;;;;;10.90;99.90;;;;;;5065826;28;20382;-79
2024/02/15 02:45:32;;;;;;;;;;;10.90;99.90;;;;;;5067215;28;19916;-79
2024/02/15 02:47:58;;;;;;;;;;;10.90;99.90;;;;;;5082125;28;19920;-79
2024/02/15 02:50:23;;;;;;;;;;;10.90;99.90;;;;;;5047337;28;19924;-79
2024/02/15 02:52:49;;;;;;;;;;;10.90;99.90;;;;;;5064097;28;19923;-79
2024/02/15 02:55:15;;;;;;;;;;;10.90;99.90;;;;;;5066652;28;19973;-79
2024/02/15 02:57:42;;;;;;;;;;;10.90;99.90;;;;;;5064508;28;19995;-79
2024/02/15 03:00:12;;;;;;;;;;;10.90;99.90;;;;;;5099960;28;19927;-79
2024/02/15 03:02:38;;;;;;;;;;;10.90;99.90;;;;;;5080591;28;20022;-79
2024/02/15 03:05:04;;;;;;;;;;;10.90;99.90;;;;;;5065660;28;19912;-79
2024/02/15 03:07:32;;;;;;;;;;;10.90;99.90;;;;;;5065386;28;20411;-79
2024/02/15 03:09:57;;;;;;;;;;;10.90;99.90;;;;;;5081822;28;19969;-79
2024/02/15 03:12:23;;;;;;;;;;;10.90;99.90;;;;;;5082433;28;19923;-80
2024/02/15 03:14:49;;;;;;;;;;;10.90;99.90;;;;;;5075936;28;19916;-79
2024/02/15 03:17:14;;;;;;;;;;;10.90;99.90;;;;;;5078923;28;19977;-79
2024/02/15 03:19:40;;;;;;;;;;;10.90;99.90;;;;;;5066667;28;20071;-81
2024/02/15 03:22:06;;;;;;;;;;;10.90;99.90;;;;;;5028707;28;20357;-80
2024/02/15 03:24:32;;;;;;;;;;;10.90;99.90;;;;;;5055302;28;19963;-81
2024/02/15 03:26:57;;;;;;;;;;;10.90;99.90;;;;;;5047790;28;19955;-81
2024/02/15 03:29:25;;;;;;;;;;;11.00;99.90;;;;;;5074177;28;19928;-80
2024/02/15 03:31:52;;;;;;;;;;;10.90;99.90;;;;;;5059198;28;19927;-79
2024/02/15 03:34:21;;;;;;;;;;;10.90;99.90;;;;;;5079454;28;20305;-80
2024/02/15 03:36:51;;;;;;;;;;;11.00;99.90;;;;;;5071764;28;19927;-80
2024/02/15 03:39:17;;;;;;;;;;;10.90;99.90;;;;;;5042966;28;19912;-80
2024/02/15 03:41:45;;;;;;;;;;;10.90;99.90;;;;;;5039863;28;20232;-79
2024/02/15 03:44:14;;;;;;;;;;;10.90;99.90;;;;;;5061628;28;19927;-80
2024/02/15 03:46:40;;;;;;;;;;;10.90;99.90;;;;;;5078648;28;19916;-80
2024/02/15 03:49:07;;;;;;;;;;;10.90;99.90;;;;;;5079374;28;20122;-79
2024/02/15 03:51:36;;;;;;;;;;;10.90;99.90;;;;;;5079475;28;19920;-80
2024/02/15 03:54:03;;;;;;;;;;;10.90;99.90;;;;;;5045720;28;19919;-80
2024/02/15 03:56:32;;;;;;;;;;;10.90;99.90;;;;;;5062117;28;19955;-80
2024/02/15 03:58:58;;;;;;;;;;;10.90;99.90;;;;;;5077949;28;19916;-79
2024/02/15 04:01:24;;;;;;;;;;;10.90;99.90;;;;;;5094998;28;20320;-80
2024/02/15 04:03:50;;;;;;;;;;;11.00;99.90;;;;;;5095526;28;19961;-80
2024/02/15 04:06:15;;;;;;;;;;;11.00;99.90;;;;;;5061585;28;20321;-80
2024/02/15 04:08:42;;;;;;;;;;;11.00;99.90;;;;;;5078014;28;20201;-79
2024/02/15 04:11:08;;;;;;;;;;;11.00;99.90;;;;;;5044600;28;19919;-80
2024/02/15 04:13:34;;;;;;;;;;;11.00;99.90;;;;;;5094825;28;19923;-79
2024/02/15 04:15:59;;;;;;;;;;;11.00;99.90;;;;;;5044725;28;19919;-80
2024/02/15 04:18:25;;;;;;;;;;;11.10;99.90;;;;;;5077997;28;19951;-80
2024/02/15 04:20:51;;;;;;;;;;;11.10;99.90;;;;;;5094369;28;19912;-79
2024/02/15 04:23:17;;;;;;;;;;;11.10;99.90;;;;;;5060719;28;19927;-80
2024/02/15 04:25:44;;;;;;;;;;;11.10;99.90;;;;;;5094814;28;19920;-79
2024/02/15 04:28:09;;;;;;;;;;;11.10;99.90;;;;;;5077117;28;20354;-79
2024/02/15 04:30:38;;;;;;;;;;;11.10;99.90;;;;;;5077826;28;19916;-80
2024/02/15 04:33:05;;;;;;;;;;;11.10;99.90;;;;;;5092650;28;19923;-78
2024/02/15 04:35:31;;;;;;;;;;;11.10;99.90;;;;;;5041369;28;20332;-75
2024/02/15 04:38:03;;;;;;;;;;;11.20;99.90;;;;;;5076382;28;19920;-75
2024/02/15 04:40:32;;;;;;;;;;;11.20;99.90;;;;;;5061902;28;19916;-76
2024/02/15 04:43:02;;;;;;;;;;;11.10;99.90;;;;;;5076736;28;19935;-76
2024/02/15 04:45:27;;;;;;;;;;;11.20;99.90;;;;;;5095526;28;19912;-76
2024/02/15 04:48:01;;;;;;;;;;;11.20;99.90;;;;;;5077939;28;20354;-76
2024/02/15 04:50:39;;;;;;;;;;;11.20;99.90;;;;;;5044865;28;19919;-76
2024/02/15 04:53:23;;;;;;;;;;;;;;;;;;;;;
2024/02/15 04:55:49;;;;;;;;;;;11.20;99.90;;;;;;5062457;28;19912;-77
2024/02/15 04:58:17;;;;;;;;;;;11.10;99.90;;;;;;5044285;28;19912;-77
2024/02/15 05:00:48;;;;;;;;;;;11.20;99.90;;;;;;5042874;28;19931;-77
2024/02/15 05:03:17;;;;;;;;;;;11.20;99.90;;;;;;5070516;28;19924;-77
2024/02/15 05:05:53;;;;;;;;;;;;;;;;;;;;;
2024/02/15 05:08:19;;;;;;;;;;;11.10;99.90;;;;;;5058475;28;20321;-76
2024/02/15 05:10:56;;;;;;;;;;;11.20;99.90;;;;;;5075166;28;19916;-77
2024/02/15 05:13:24;;;;;;;;;;;11.20;99.90;;;;;;5047761;28;19974;-77
2024/02/15 05:16:05;;;;;;;;;;;11.20;99.90;;;;;;5045878;28;19948;-76
2024/02/15 05:18:31;;;;;;;;;;;11.20;99.90;;;;;;5023870;28;20521;-77
2024/02/15 05:21:07;;;;;;;;;;;11.20;99.90;;;;;;5074815;28;20039;-77
2024/02/15 05:23:34;;;;;;;;;;;11.20;99.90;;;;;;5044339;28;20259;-77
2024/02/15 05:26:02;;;;;;;;;;;11.10;99.90;;;;;;5060205;28;19923;-77
2024/02/15 05:28:34;;;;;;;;;;;11.10;99.90;;;;;;5044164;28;19916;-77
2024/02/15 05:31:31;;;;;;;;;;;11.20;99.90;;;;;;5056916;28;19965;-77
2024/02/15 05:33:57;;;;;;;;;;;11.20;99.90;;;;;;5060323;28;19916;-77
2024/02/15 05:36:25;;;;;;;;;;;11.20;99.90;;;;;;5060079;28;20016;-77
2024/02/15 05:38:57;;;;;;;;;;;11.20;99.90;;;;;;5077082;28;20003;-77
2024/02/15 05:41:25;;;;;;;;;;;11.20;99.90;;;;;;5076897;28;19938;-76
2024/02/15 05:43:53;;;;;;;;;;;11.20;99.90;;;;;;5060022;28;19916;-76
2024/02/15 05:46:21;;;;;;;;;;;11.20;99.90;;;;;;5093235;28;20427;-77
2024/02/15 05:48:51;;;;;;;;;;;11.20;99.90;;;;;;5093142;28;19990;-77
2024/02/15 05:51:17;;;;;;;;;;;11.20;99.90;;;;;;5075122;28;20289;-76
2024/02/15 05:53:45;;;;;;;;;;;11.30;99.90;;;;;;5083780;28;20351;-76
2024/02/15 05:56:14;;;;;;;;;;;11.30;99.90;;;;;;5044052;28;20737;-76
2024/02/15 05:58:45;;;;;;;;;;;11.30;99.90;;;;;;5068410;28;19998;-76
2024/02/15 06:01:13;;;;;;;;;;;11.30;99.90;;;;;;5063268;28;19935;-76
2024/02/15 06:03:44;;;;;;;;;;;11.30;99.90;;;;;;5063263;28;19915;-76
2024/02/15 06:06:26;;;;;;;;;;;11.20;99.90;;;;;;5084864;28;19916;-76
2024/02/15 06:08:54;;;;;;;;;;;11.30;99.90;;;;;;5073045;28;19916;-76
2024/02/15 06:11:20;;;;;;;;;;;11.30;99.90;;;;;;5080141;28;20020;-76
2024/02/15 06:13:47;;;;;;;;;;;11.30;99.90;;;;;;5045751;28;19916;-76
2024/02/15 06:16:12;;;;;;;;;;;11.30;99.90;;;;;;5080105;28;19912;-77
2024/02/15 06:18:38;;;;;;;;;;;11.20;99.90;;;;;;5072452;28;20050;-76
2024/02/15 06:21:08;;;;;;;;;;;11.20;99.90;;;;;;5092154;28;19916;-76
2024/02/15 06:23:35;;;;;;;;;;;11.20;99.90;;;;;;5043075;28;20005;-76
2024/02/15 06:26:03;;;;;;;;;;;11.30;99.90;;;;;;5059553;28;19917;-76
2024/02/15 06:39:42;;;;;;;;;;;11.40;99.90;;;;;;5061837;28;20341;-76
2024/02/15 06:42:09;;;;;;;;;;;11.30;99.90;;;;;;5059089;28;19936;-76
2024/02/15 06:44:35;;;;;;;;;;;11.40;99.90;;;;;;5089471;28;20035;-77
2024/02/15 06:47:01;;;;;;;;;;;11.40;99.90;;;;;;5095994;28;20379;-76
2024/02/15 06:49:26;;;;;;;;;;;11.40;99.90;;;;;;5096090;28;20007;-76
2024/02/15 06:51:52;;;;;;;;;;;11.40;99.90;;;;;;5064264;28;19916;-76
2024/02/15 06:54:18;;;;;;;;;;;11.40;99.90;;;;;;5053985;28;19912;-76
2024/02/15 06:56:46;;;;;;;;;;;11.40;99.90;;;;;;5061951;28;19952;-76
2024/02/15 06:59:14;;;;;;;;;;;11.40;99.90;;;;;;5062585;28;20247;-77
2024/02/15 07:01:41;;;;;;;;;;;11.50;99.90;;;;;;5061337;28;20023;-77
2024/02/15 07:04:09;;;;;;;;;;;11.40;99.90;;;;;;5076739;28;19965;-77
2024/02/15 07:06:44;;;;;;;;;;;11.40;99.90;;;;;;5059615;28;19923;-77
2024/02/15 07:09:10;;;;;;;;;;;11.30;99.90;;;;;;5060934;28;19916;-76
2024/02/15 07:11:39;;;;;;;;;;;11.50;99.90;;;;;;5077883;28;19916;-76
2024/02/15 07:14:07;;;;;;;;;;;11.40;99.90;;;;;;5048342;28;19973;-77
2024/02/15 07:16:33;;;;;;;;;;;11.40;99.90;;;;;;5059474;28;19915;-76
2024/02/15 07:19:10;;;;;;;;;;;;;;;;;;;;;
2024/02/15 07:21:39;;;;;;;;;;;11.50;99.90;;;;;;5095546;28;19942;-76
2024/02/15 07:24:05;;;;;;;;;;;11.50;99.90;;;;;;5078504;28;20632;-75
2024/02/15 07:26:32;;;;;;;;;;;11.50;99.90;;;;;;5078759;28;20053;-76
2024/02/15 07:28:58;;;;;;;;;;;11.50;99.90;;;;;;5064869;28;19951;-76
2024/02/15 07:31:27;;;;;;;;;;;11.50;99.90;;;;;;5044794;28;20668;-80
2024/02/15 07:33:53;;;;;;;;;;;11.60;99.90;;;;;;5050083;28;19935;-79
2024/02/15 07:36:22;;;;;;;;;;;11.60;99.90;;;;;;5066791;28;20001;-79
2024/02/15 07:38:48;;;;;;;;;;;11.60;99.90;;;;;;5061603;28;19916;-80
2024/02/15 07:41:17;;;;;;;;;;;11.60;99.90;;;;;;5061579;28;19924;-80
2024/02/15 07:43:44;;;;;;;;;;;11.70;99.90;;;;;;5041707;28;20275;-80
2024/02/15 07:46:20;;;;;;;;;;;11.70;99.90;;;;;;5043109;28;19916;-80
2024/02/15 07:48:46;;;;;;;;;;;11.70;99.90;;;;;;5078119;28;19919;-80
2024/02/15 07:51:12;;;;;;;;;;;11.70;99.90;;;;;;5061426;28;19943;-79
2024/02/15 07:53:40;;;;;;;;;;;11.70;99.90;;;;;;5096320;28;19969;-79
2024/02/15 07:56:05;;;;;;;;;;;11.80;99.90;;;;;;5061766;28;19912;-80
2024/02/15 07:58:31;;;;;;;;;;;11.80;99.90;;;;;;5054750;28;19920;-80
2024/02/15 08:00:57;;;;;;;;;;;11.70;99.90;;;;;;5045412;28;19916;-79
2024/02/15 08:03:23;;;;;;;;;;;11.80;99.90;;;;;;5043209;28;19924;-79
2024/02/15 08:05:48;;;;;;;;;;;11.80;99.90;;;;;;5058961;28;19920;-79
2024/02/15 08:08:14;;;;;;;;;;;11.80;99.90;;;;;;5041199;28;19916;-80
2024/02/15 08:10:40;;;;;;;;;;;11.80;99.90;;;;;;5049366;28;20230;-79
2024/02/15 08:13:10;;;;;;;;;;;11.80;99.90;;;;;;5041681;28;19921;-79
2024/02/15 08:15:36;;;;;;;;;;;11.80;99.90;;;;;;5041188;28;19971;-79
2024/02/15 08:18:05;;;;;;;;;;;11.80;99.90;;;;;;5038104;28;19920;-79
2024/02/15 08:20:31;;;;;;;;;;;11.80;99.90;;;;;;5027959;28;19998;-79
2024/02/15 08:22:58;;;;;;;;;;;11.80;99.90;;;;;;5069297;28;20320;-79
2024/02/15 08:25:25;;;;;;;;;;;11.80;99.90;;;;;;5058026;28;19920;-79
2024/02/15 08:27:51;;;;;;;;;;;11.90;99.90;;;;;;5063713;28;19942;-79
2024/02/15 08:30:17;;;;;;;;;;;11.90;99.90;;;;;;5061602;28;20362;-79
2024/02/15 08:32:42;;;;;;;;;;;11.90;99.90;;;;;;5051127;28;19912;-80
2024/02/15 08:35:08;;;;;;;;;;;11.90;99.90;;;;;;5056383;28;19916;-79
2024/02/15 08:37:35;;;;;;;;;;;11.90;99.90;;;;;;5042005;28;20247;-79
2024/02/15 08:40:04;;;;;;;;;;;11.90;99.90;;;;;;5053982;28;19912;-79
2024/02/15 08:42:30;;;;;;;;;;;12.00;99.90;;;;;;5054952;28;19920;-79
2024/02/15 08:44:57;;;;;;;;;;;11.90;99.90;;;;;;5057711;28;19943;-79
2024/02/15 08:47:22;;;;;;;;;;;12.00;99.90;;;;;;5061530;28;19911;-79
2024/02/15 08:49:48;;;;;;;;;;;12.00;99.90;;;;;;5077451;28;19912;-80
2024/02/15 08:52:14;;;;;;;;;;;12.00;99.90;;;;;;5073710;28;19916;-80
2024/02/15 08:54:41;;;;;;;;;;;12.00;99.90;;;;;;5061904;28;20003;-80
2024/02/15 08:57:33;;;;;;;;;;;12.10;99.90;;;;;;5062780;28;19920;-81
2024/02/15 09:33:41;;;;;;;;;;;12.70;99.90;;;;;;5817061;22;19959;-81
2024/02/15 09:36:07;;;;;;;;;;;12.70;99.90;;;;;;5052496;28;20336;-80
2024/02/15 09:38:33;;;;;;;;;;;12.70;99.90;;;;;;5061363;28;19969;-80
2024/02/15 09:40:59;;;;;;;;;;;12.70;99.90;;;;;;5077844;28;19912;-79
2024/02/15 09:43:26;;;;;;;;;;;12.70;99.90;;;;;;5077557;28;19924;-79
2024/02/15 09:45:57;;;;;;;;;;;12.70;99.90;;;;;;5061340;28;20189;-79
2024/02/15 09:48:23;;;;;;;;;;;12.70;99.90;;;;;;5078247;28;19933;-80
2024/02/15 09:50:52;;;;;;;;;;;12.70;99.90;;;;;;5077735;28;20057;-80
2024/02/15 09:53:20;;;;;;;;;;;12.80;99.90;;;;;;5046034;28;19912;-80
2024/02/15 09:55:45;;;;;;;;;;;12.80;99.90;;;;;;5092799;28;19912;-80
2024/02/15 09:58:12;;;;;;;;;;;12.80;99.90;;;;;;5077493;28;19923;-80
2024/02/15 10:00:38;;;;;;;;;;;12.80;99.90;;;;;;5078257;28;19920;-80
2024/02/15 10:03:05;;;;;;;;;;;12.90;99.90;;;;;;5096321;28;19920;-80
2024/02/15 10:05:31;;;;;;;;;;;12.90;99.90;;;;;;5045641;28;19912;-80
2024/02/15 10:08:00;;;;;;;;;;;12.90;99.90;;;;;;5079251;28;19923;-82
2024/02/15 10:10:27;;;;;;;;;;;13.00;99.90;;;;;;5078716;28;19912;-80
2024/02/15 10:12:55;;;;;;;;;;;13.00;99.90;;;;;;5063538;28;19923;-80
2024/02/15 10:15:31;;;;;;;;;;;13.00;99.90;;;;;;5091006;28;19916;-80
2024/02/15 10:17:58;;;;;;;;;;;13.00;99.90;;;;;;5078063;28;19923;-80
2024/02/15 10:20:25;;;;;;;;;;;13.00;99.90;;;;;;5062251;28;19912;-80
2024/02/15 10:23:00;;;;;;;;;;;13.00;99.90;;;;;;5060865;28;19924;-80
2024/02/15 10:25:29;;;;;;;;;;;13.00;99.90;;;;;;5094650;28;19937;-80
2024/02/15 10:28:07;;;;;;;;;;;13.10;99.90;;;;;;5060962;28;19923;-81
2024/02/15 10:30:36;;;;;;;;;;;13.10;99.90;;;;;;5094333;28;19916;-80
2024/02/15 10:33:03;;;;;;;;;;;13.20;99.90;;;;;;5059821;28;19912;-80
2024/02/15 10:35:29;;;;;;;;;;;13.20;99.90;;;;;;5092935;28;19950;-80
2024/02/15 10:38:04;;;;;;;;;;;13.20;99.90;;;;;;5076317;28;19919;-80
2024/02/15 10:40:30;;;;;;;;;;;13.20;99.90;;;;;;5062305;28;19912;-79
2024/02/15 10:42:56;;;;;;;;;;;13.30;99.90;;;;;;5079860;28;19935;-80
2024/02/15 10:45:22;;;;;;;;;;;13.30;99.90;;;;;;5080205;28;20374;-80
2024/02/15 10:47:47;;;;;;;;;;;13.30;99.90;;;;;;5096370;28;19955;-80
2024/02/15 10:50:13;;;;;;;;;;;13.30;99.90;;;;;;5062723;28;19955;-80
2024/02/15 10:52:51;;;;;;;;;;;13.40;99.90;;;;;;5079693;28;19916;-80
2024/02/15 10:55:19;;;;;;;;;;;13.40;99.90;;;;;;5046313;28;20310;-80
2024/02/15 10:57:45;;;;;;;;;;;13.40;99.90;;;;;;5079689;28;19920;-79
2024/02/15 11:00:20;;;;;;;;;;;13.40;99.90;;;;;;5079561;28;20244;-80
2024/02/15 11:03:02;;;;;;;;;;;13.40;99.90;;;;;;5062856;28;20380;-79
2024/02/15 11:05:34;;;;;;;;;;;13.40;99.90;;;;;;5063250;28;19920;-80
2024/02/15 11:08:01;;;;;;;;;;;13.40;99.90;;;;;;5046577;28;19944;-78
2024/02/15 11:10:27;;;;;;;;;;;13.40;99.90;;;;;;5080046;28;19966;-80
2024/02/15 11:12:53;;;;;;;;;;;13.50;99.90;;;;;;5062566;28;19916;-80
2024/02/15 11:15:39;;;;;;;;;;;13.40;99.90;;;;;;5060100;28;19951;-80
2024/02/15 11:18:06;;;;;;;;;;;13.50;99.90;;;;;;5091523;28;20244;-80
2024/02/15 11:20:32;;;;;;;;;;;13.50;99.90;;;;;;5080033;28;20333;-80
2024/02/15 11:22:58;;;;;;;;;;;13.50;99.90;;;;;;5097368;28;20058;-80
2024/02/15 11:25:34;;;;;;;;;;;13.40;99.90;;;;;;5046435;28;20332;-79
2024/02/15 11:28:18;;;;;;;;;;;13.40;99.90;;;;;;5228072;22;21918;-79
2024/02/15 11:30:45;;;;;;;;;;;13.50;99.90;;;;;;5081340;28;19919;-80
2024/02/15 11:33:24;;;;;;;;;;;13.40;99.90;;;;;;5081098;28;20368;-76
2024/02/15 11:36:05;;;;;;;;;;;13.40;99.90;;;;;;5096892;28;19912;-76
2024/02/15 11:38:31;;;;;;;;;;;13.40;99.90;;;;;;5079810;28;20304;-77
2024/02/15 11:40:57;;;;;;;;;;;13.40;99.90;;;;;;5077366;28;20006;-77
2024/02/15 11:43:44;;;;;;;;;;;13.40;99.90;;;;;;5087322;28;20683;-76
2024/02/15 11:46:19;;;;;;;;;;;13.40;99.90;;;;;;5100446;28;19999;-76
2024/02/15 11:48:46;;;;;;;;;;;13.40;99.90;;;;;;5083468;28;19923;-76
2024/02/15 11:51:24;;;;;;;;;;;13.30;99.90;;;;;;5075062;28;19912;-76
2024/02/15 11:54:05;;;;;;;;;;;13.40;99.90;;;;;;5079252;28;20392;-77
2024/02/15 11:56:44;;;;;;;;;;;13.40;99.90;;;;;;5078910;28;19912;-77
2024/02/15 11:59:18;;;;;;;;;;;13.40;99.90;;;;;;5074992;28;20360;-77
2024/02/15 12:18:42;;;;;;;;;;;13.30;99.90;;;;;;5094874;28;19967;-79
2024/02/15 12:21:09;;;;;;;;;;;13.30;99.90;;;;;;5123650;28;19983;-78
2024/02/15 12:23:42;;;;;;;;;;;13.20;99.90;;;;;;5140364;28;19920;-76
2024/02/15 12:26:09;;;;;;;;;;;13.30;99.90;;;;;;5107033;28;19900;-76
2024/02/15 12:28:36;;;;;;;;;;;13.20;99.90;;;;;;5106548;28;19931;-78
2024/02/15 12:31:02;;;;;;;;;;;13.20;99.90;;;;;;5106805;28;19907;-77
2024/02/15 12:33:28;;;;;;;;;;;13.20;99.90;;;;;;5106688;28;19922;-76
2024/02/15 12:36:07;;;;;;;;;;;13.10;99.90;;;;;;5106771;28;19899;-76
2024/02/15 12:38:42;;;;;;;;;;;13.10;99.90;;;;;;5123442;28;19900;-79
2024/02/15 12:41:30;;;;;;;;;;;13.10;99.90;;;;;;5107873;28;19899;-77
2024/02/15 12:43:57;;;;;;;;;;;13.10;99.90;;;;;;5106564;28;19899;-76
2024/02/15 12:46:23;;;;;;;;;;;13.10;99.90;;;;;;5122766;28;19926;-78
2024/02/15 12:48:49;;;;;;;;;;;13.10;99.90;;;;;;5089637;28;19920;-76
2024/02/15 12:51:15;;;;;;;;;;;13.00;99.90;;;;;;5110431;28;19922;-77
2024/02/15 12:53:44;;;;;;;;;;;13.10;99.90;;;;;;5084628;28;19911;-79
2024/02/15 12:56:09;;;;;;;;;;;13.10;99.90;;;;;;5084302;28;19900;-79
2024/02/15 12:58:35;;;;;;;;;;;13.10;99.90;;;;;;5097659;28;19971;-79
2024/02/15 13:01:01;;;;;;;;;;;13.10;99.90;;;;;;5097230;28;19900;-79
2024/02/15 13:03:27;;;;;;;;;;;13.10;99.90;;;;;;5114235;28;19917;-79
2024/02/15 13:05:52;;;;;;;;;;;13.10;99.90;;;;;;5067564;28;19916;-79
2024/02/15 13:08:19;;;;;;;;;;;13.10;99.90;;;;;;5084802;28;19903;-77
2024/02/15 13:10:46;;;;;;;;;;;13.10;99.90;;;;;;5067701;28;19928;-79
2024/02/15 13:13:14;;;;;;;;;;;13.20;99.90;;;;;;5065678;28;19900;-77
2024/02/15 13:15:40;;;;;;;;;;;13.20;99.90;;;;;;5082647;28;19922;-76
2024/02/15 13:18:06;;;;;;;;;;;13.20;99.90;;;;;;5064153;28;19908;-78
2024/02/15 13:20:35;;;;;;;;;;;13.20;99.90;;;;;;5091553;28;19899;-79
2024/02/15 13:23:09;;;;;;;;;;;13.30;99.90;;;;;;5105505;28;19916;-77
2024/02/15 13:25:36;;;;;;;;;;;13.20;99.90;;;;;;5106592;28;19900;-77
2024/02/15 13:28:04;;;;;;;;;;;13.20;99.90;;;;;;5122440;28;19916;-77
2024/02/15 13:30:31;;;;;;;;;;;13.30;99.90;;;;;;5106328;28;19911;-76
2024/02/15 13:33:07;;;;;;;;;;;;;;;;;;;;;
2024/02/15 13:35:33;;;;;;;;;;;13.30;99.90;;;;;;5104007;28;19934;-76
2024/02/15 13:37:58;;;;;;;;;;;13.30;99.90;;;;;;5085502;28;19920;-78
2024/02/15 13:40:27;;;;;;;;;;;13.30;99.90;;;;;;5069017;28;19900;-76
2024/02/15 13:42:55;;;;;;;;;;;13.20;99.90;;;;;;5101007;28;19939;-76
2024/02/15 14:54:44;;;;;;;;;;;13.60;99.90;;;;;;5881324;22;19924;-80
2024/02/15 14:57:09;;;;;;;;;;;13.70;99.90;;;;;;5059115;28;19977;-80
2024/02/15 14:59:36;;;;;;;;;;;13.60;99.90;;;;;;5051514;28;19913;-80
2024/02/15 15:02:08;;;;;;;;;;;13.60;99.90;;;;;;5056889;28;19932;-80
2024/02/15 15:04:47;;;;;;;;;;;13.60;99.90;;;;;;5055836;28;19963;-80
2024/02/15 15:12:45;;;;;;;;;;;13.60;99.90;;;;;;5034245;28;19916;-80
2024/02/15 15:15:13;;;;;;;;;;;13.60;99.90;;;;;;5025321;28;19917;-79
2024/02/15 15:17:38;;;;;;;;;;;13.60;99.90;;;;;;5018435;28;20234;-80
2024/02/15 15:20:08;;;;;;;;;;;13.60;99.90;;;;;;4991538;28;19910;-76
2024/02/15 15:22:34;;;;;;;;;;;13.50;99.90;;;;;;5017569;28;19938;-79
2024/02/15 15:25:01;;;;;;;;;;;13.50;99.90;;;;;;5015159;28;19917;-80
2024/02/15 15:27:27;;;;;;;;;;;13.50;99.90;;;;;;5048861;28;19964;-80
2024/02/15 15:29:57;;;;;;;;;;;13.50;99.90;;;;;;5042398;28;19924;-80
2024/02/15 15:32:23;;;;;;;;;;;13.50;99.90;;;;;;5060213;28;19945;-80
2024/02/15 15:34:48;;;;;;;;;;;13.50;99.90;;;;;;5041149;28;19924;-80
2024/02/15 15:37:15;;;;;;;;;;;13.50;99.90;;;;;;5011104;28;19901;-80
2024/02/15 15:39:41;;;;;;;;;;;13.50;99.90;;;;;;5024944;28;19901;-80
2024/02/15 15:42:08;;;;;;;;;;;13.50;99.90;;;;;;5027464;28;19931;-77
2024/02/15 15:44:34;;;;;;;;;;;13.40;99.90;;;;;;5043555;28;19902;-79
2024/02/15 15:46:59;;;;;;;;;;;13.40;99.90;;;;;;5027314;28;19901;-80
2024/02/15 15:49:25;;;;;;;;;;;13.40;99.90;;;;;;5026803;28;19959;-80
2024/02/15 15:51:53;;;;;;;;;;;13.40;99.90;;;;;;5012028;28;19917;-80
2024/02/15 15:54:19;;;;;;;;;;;13.40;99.90;;;;;;5023065;28;19973;-77
2024/02/15 15:56:46;;;;;;;;;;;13.40;99.90;;;;;;4992006;28;19908;-77
2024/02/15 15:59:14;;;;;;;;;;;13.40;99.90;;;;;;5040909;28;19908;-78
2024/02/15 16:01:47;;;;;;;;;;;13.30;99.90;;;;;;5007833;28;19969;-77
2024/02/15 16:04:14;;;;;;;;;;;13.30;99.90;;;;;;5023675;28;19922;-80
2024/02/15 16:06:40;;;;;;;;;;;13.30;99.90;;;;;;5023596;28;19908;-77
2024/02/15 16:09:08;;;;;;;;;;;13.30;99.90;;;;;;5007809;28;19909;-77
2024/02/15 16:11:34;;;;;;;;;;;13.30;99.90;;;;;;4991292;28;19901;-80
2024/02/15 16:14:00;;;;;;;;;;;13.30;99.90;;;;;;5006865;28;19902;-80
2024/02/15 16:16:29;;;;;;;;;;;13.30;99.90;;;;;;5007229;28;19919;-78
2024/02/15 16:18:55;;;;;;;;;;;13.30;99.90;;;;;;5007655;28;19909;-78
2024/02/15 16:21:24;;;;;;;;;;;13.30;99.90;;;;;;5022929;28;19901;-79
2024/02/15 16:23:52;;;;;;;;;;;13.30;99.90;;;;;;4991076;28;19901;-76
2024/02/15 16:26:18;;;;;;;;;;;13.30;99.90;;;;;;5023091;28;19929;-77
2024/02/15 16:28:43;;;;;;;;;;;13.30;99.90;;;;;;5028567;28;19908;-78
2024/02/15 16:31:09;;;;;;;;;;;13.30;99.90;;;;;;5023572;28;19928;-80
2024/02/15 16:33:37;;;;;;;;;;;13.30;99.90;;;;;;5024868;28;19932;-77
2024/02/15 16:36:02;;;;;;;;;;;13.30;99.90;;;;;;5008507;28;19917;-78
2024/02/15 16:38:28;;;;;;;;;;;13.30;99.90;;;;;;5042395;28;19932;-77
2024/02/15 16:40:54;;;;;;;;;;;13.30;99.90;;;;;;5026308;28;19927;-77
2024/02/15 16:43:21;;;;;;;;;;;13.30;99.90;;;;;;5010159;28;19916;-78